Etusivu
METAR-TAF:

METAR-TAF

Lentoasemat :

Guernsey,

Leveyspiiri: 49-26N, Pituuspiiri: 002-36W, korkeus merenpinnasta: 102 m

Tämänhetkinen sää

Tämä raportti tehtiin 38 minuuttia sitten, kello 10.20 UTC
Tuuli 10 kn idästä
Lämpötila 11°C
Kosteus 82%
Ilmanpaine 1027 hPa
Näkyvyys 10 km tai enemmän
Muutamia pilviä 4200 ft:n korkeudessa

METAR: EGJB 071020Z 08010KT 9999 FEW042 11/08 Q1027

Aika: 11:58 (10:58 UTC)

Sääennuste

Tämä raportti tehtiin 3 tuntia ja 0 minuuttia sitten, kello 07.58 UTC
Ennuste voimassa 07. päivästä klo 09 UTC - 07. päivään klo 18 UTC
Tuuli 12 kn idästä
Näkyvyys 10 km tai enemmän
Muutamia pilviä 1500 ft:n korkeudessa
Hajonneita pilviä 4500 ft:n korkeudessa
Todennäköisyys 30% :
Ajoittain
07. päivästä klo 12 UTC - 07. päivään klo 18 UTC
Näkyvyys: 7000 m
Hajonneita pilviä 1200 ft:n korkeudessa
vesikuuroja

TAF: EGJB 070758Z 0709/0718 09012KT 9999 FEW015 BKN045 PROB30 TEMPO 0712/0718 7000 SHRA BKN012

Säähavainnot ja -ennusteet yli 4000 lentoasemalta (METAR- ja TAF-raportit).

Käytössä olevat sääasemat on merkitty karttaan keltaisilla ja punaisilla pisteillä.

Aseta hiiri pisteen päälle nähdäksesi sääaseman nimen.

Klikkaa sitten nähdäksesi säähavainnot ja -ennusteet.

Kartan vaihtaminen: klikkaa mustalla rastilla varustettuja vihreitä pisteitä, niin voit zoomata sisään; viivalla varustettua vihreää pistettä, niin voit zoomata ulos tai vihreitä nuolia, niin pääset viereisille kartoille.


METAR-TAF: